createdAt,value
2023-03-22T00:02:26.392Z,28.53
2023-03-22T00:04:55.991Z,27.67
2023-03-22T00:07:22.827Z,27.90
2023-03-22T00:09:49.623Z,28.17
2023-03-22T00:12:16.395Z,28.27
2023-03-22T00:14:43.202Z,27.10
2023-03-22T00:17:10.035Z,27.47
2023-03-22T00:19:37.448Z,28.27
2023-03-22T00:22:06.262Z,26.70
2023-03-22T00:24:33.203Z,27.17
2023-03-22T00:27:01.154Z,29.50
2023-03-22T00:29:28.032Z,26.33
2023-03-22T00:31:56.059Z,27.00
2023-03-22T00:34:22.905Z,26.80
2023-03-22T00:36:49.745Z,26.60
2023-03-22T00:39:16.589Z,26.37
2023-03-22T00:41:45.626Z,25.93
2023-03-22T00:44:14.588Z,26.97
2023-03-22T00:46:43.755Z,26.20
2023-03-22T00:49:10.528Z,26.23
2023-03-22T00:51:37.342Z,25.13
2023-03-22T00:54:04.136Z,26.00
2023-03-22T00:56:33.981Z,26.73
2023-03-22T00:59:03.096Z,26.63
2023-03-22T01:01:29.989Z,25.50
2023-03-22T01:03:59.037Z,25.73
2023-03-22T01:06:25.961Z,26.27
2023-03-22T01:08:55.201Z,26.67
2023-03-22T01:11:22.057Z,25.90
2023-03-22T01:13:48.837Z,25.43
2023-03-22T01:16:15.739Z,26.13
2023-03-22T01:18:42.541Z,25.67
2023-03-22T01:21:09.385Z,26.77
2023-03-22T01:23:38.315Z,25.80
2023-03-22T01:26:05.654Z,26.00
2023-03-22T01:28:32.718Z,26.87
2023-03-22T01:31:02.711Z,27.87
2023-03-22T01:33:29.868Z,27.83
2023-03-22T01:35:56.722Z,27.87
2023-03-22T01:38:23.536Z,28.00
2023-03-22T01:40:50.566Z,28.63
2023-03-22T01:43:17.511Z,28.20
2023-03-22T01:45:48.875Z,29.43
2023-03-22T01:48:54.601Z,28.53
2023-03-22T01:51:26.168Z,28.70
2023-03-22T01:53:57.155Z,30.03
2023-03-22T01:56:25.614Z,30.07
2023-03-22T01:58:52.469Z,31.03
2023-03-22T02:01:19.298Z,30.63
2023-03-22T02:04:07.253Z,31.33
2023-03-22T02:06:38.086Z,30.73
2023-03-22T02:09:09.470Z,29.80
2023-03-22T02:11:44.236Z,30.60
2023-03-22T02:14:44.556Z,32.10
2023-03-22T02:17:17.266Z,30.67
2023-03-22T02:20:32.913Z,30.60
2023-03-22T02:23:14.751Z,28.57
2023-03-22T02:26:00.032Z,30.33
2023-03-22T02:28:26.837Z,28.63
2023-03-22T02:31:02.775Z,28.67
2023-03-22T02:33:53.991Z,29.63
2023-03-22T02:36:51.200Z,29.10
2023-03-22T02:39:20.935Z,28.10
2023-03-22T02:42:19.114Z,28.37
2023-03-22T02:45:27.918Z,27.20
2023-03-22T02:47:57.551Z,29.73
2023-03-22T02:50:49.082Z,28.00
2023-03-22T02:53:31.181Z,27.13
2023-03-22T02:56:06.074Z,27.13
2023-03-22T02:58:45.641Z,27.10
2023-03-22T03:01:22.968Z,26.77
2023-03-22T03:03:55.295Z,27.73
2023-03-22T03:06:22.897Z,26.63
2023-03-22T03:08:54.772Z,26.07
2023-03-22T03:11:21.663Z,25.63
2023-03-22T03:13:51.136Z,27.23
2023-03-22T03:16:22.158Z,27.73
2023-03-22T03:18:54.672Z,26.50
2023-03-22T03:21:45.321Z,27.87
2023-03-22T03:24:22.660Z,28.07
2023-03-22T03:27:06.642Z,26.80
2023-03-22T03:29:43.602Z,28.43
2023-03-22T03:32:16.561Z,28.37
2023-03-22T03:34:59.282Z,28.13
2023-03-22T03:37:32.848Z,29.40
2023-03-22T03:40:26.559Z,30.17
2023-03-22T03:42:56.247Z,29.73
2023-03-22T03:45:24.251Z,31.20
2023-03-22T03:47:57.048Z,29.83
2023-03-22T03:50:25.042Z,30.63
2023-03-22T03:52:52.610Z,30.73
2023-03-22T03:55:19.746Z,31.67
2023-03-22T03:57:46.512Z,31.07
2023-03-22T04:00:17.056Z,30.73
2023-03-22T04:02:48.517Z,30.77
2023-03-22T04:05:17.589Z,30.33
2023-03-22T04:07:44.374Z,29.00
2023-03-22T04:10:11.231Z,29.50
2023-03-22T04:12:38.536Z,29.20
2023-03-22T04:15:05.979Z,29.60
2023-03-22T04:17:32.920Z,28.67
2023-03-22T04:20:05.880Z,29.83
2023-03-22T04:22:34.578Z,31.00
2023-03-22T04:25:03.832Z,27.63
2023-03-22T04:27:30.617Z,28.70
2023-03-22T04:29:58.118Z,28.27
2023-03-22T04:32:27.392Z,25.87
2023-03-22T04:34:54.220Z,26.53
2023-03-22T04:37:27.052Z,27.03
2023-03-22T04:39:54.434Z,26.10
2023-03-22T04:42:21.264Z,26.07
2023-03-22T04:44:50.364Z,27.17
2023-03-22T04:47:18.155Z,25.60
2023-03-22T04:49:47.451Z,25.77
2023-03-22T04:52:14.267Z,24.30
2023-03-22T04:54:41.271Z,27.50
2023-03-22T04:57:08.134Z,25.40
2023-03-22T04:59:35.333Z,24.83
2023-03-22T05:02:02.125Z,27.17
2023-03-22T05:04:29.055Z,25.40
2023-03-22T05:06:55.820Z,26.40
2023-03-22T05:09:23.596Z,24.83
2023-03-22T05:11:52.663Z,25.20
2023-03-22T05:14:19.442Z,24.47
2023-03-22T05:16:46.276Z,23.10
2023-03-22T05:19:22.354Z,24.03
2023-03-22T05:21:57.961Z,22.77
2023-03-22T05:24:24.858Z,22.80
2023-03-22T05:26:53.846Z,22.33
2023-03-22T05:29:22.921Z,21.67
2023-03-22T05:31:49.759Z,22.43
2023-03-22T05:34:20.351Z,21.97
2023-03-22T05:36:51.566Z,20.40
2023-03-22T05:39:18.433Z,21.87
2023-03-22T05:41:48.325Z,20.93
2023-03-22T05:44:15.487Z,19.83
2023-03-22T05:46:42.327Z,20.20
2023-03-22T05:49:11.098Z,21.53
2023-03-22T05:51:41.631Z,22.03
2023-03-22T05:54:11.302Z,21.90
2023-03-22T05:56:40.821Z,21.97
2023-03-22T05:59:10.061Z,22.13
2023-03-22T06:01:36.864Z,21.53
2023-03-22T06:04:03.864Z,21.10
2023-03-22T06:06:33.240Z,20.30
2023-03-22T06:09:16.042Z,20.07
2023-03-22T06:11:44.029Z,20.90
2023-03-22T06:14:11.062Z,20.40
2023-03-22T06:16:38.029Z,20.23
2023-03-22T06:19:04.830Z,20.83
2023-03-22T06:21:34.175Z,20.83
2023-03-22T06:24:01.422Z,19.67
2023-03-22T06:26:32.858Z,19.73
2023-03-22T06:29:03.670Z,20.03
2023-03-22T06:31:32.945Z,19.23
2023-03-22T06:33:59.734Z,19.57
2023-03-22T06:36:26.528Z,20.03
2023-03-22T06:38:55.635Z,18.73
2023-03-22T06:41:22.459Z,17.87
2023-03-22T06:43:49.238Z,18.40
2023-03-22T06:46:16.404Z,17.90
2023-03-22T06:48:43.237Z,17.47
2023-03-22T06:51:10.006Z,17.60
2023-03-22T06:53:36.794Z,18.00
2023-03-22T06:56:03.881Z,17.47
2023-03-22T06:58:30.822Z,17.50
2023-03-22T07:00:57.668Z,17.03
2023-03-22T07:03:26.821Z,16.93
2023-03-22T07:05:53.592Z,15.63
2023-03-22T07:08:20.413Z,16.07
2023-03-22T07:10:51.293Z,15.87
2023-03-22T07:13:18.127Z,15.23
2023-03-22T07:15:47.245Z,13.53
2023-03-22T07:18:14.077Z,14.57
2023-03-22T07:20:43.827Z,14.57
2023-03-22T07:23:10.972Z,13.93
2023-03-22T07:25:37.819Z,13.37
2023-03-22T07:28:11.232Z,13.20
2023-03-22T07:30:39.086Z,13.50
2023-03-22T07:33:09.058Z,12.97
2023-03-22T07:35:38.148Z,13.17
2023-03-22T07:38:05.637Z,13.10
2023-03-22T07:40:37.327Z,12.57
2023-03-22T07:43:04.250Z,13.17
2023-03-22T07:45:31.307Z,14.40
2023-03-22T07:48:00.307Z,13.80
2023-03-22T07:50:27.105Z,14.83
2023-03-22T07:52:53.919Z,14.40
2023-03-22T07:55:20.780Z,14.60
2023-03-22T07:57:51.240Z,14.93
2023-03-22T08:00:18.562Z,16.20
2023-03-22T08:02:46.054Z,15.83
2023-03-22T08:05:15.516Z,15.63
2023-03-22T08:07:42.414Z,15.83
2023-03-22T08:10:09.515Z,15.83
2023-03-22T08:12:36.524Z,17.00
2023-03-22T08:15:09.145Z,15.63
2023-03-22T08:17:36.092Z,16.30
2023-03-22T08:20:08.966Z,16.33
2023-03-22T08:22:36.567Z,16.10
2023-03-22T08:25:06.236Z,15.97
2023-03-22T08:27:33.660Z,16.13
2023-03-22T08:30:00.912Z,15.47
2023-03-22T08:32:33.400Z,15.80
2023-03-22T08:35:02.454Z,16.33
2023-03-22T08:37:29.373Z,15.87
2023-03-22T08:39:56.419Z,16.77
2023-03-22T08:42:23.197Z,17.20
2023-03-22T08:44:52.577Z,16.83
2023-03-22T08:47:21.848Z,17.70
2023-03-22T08:49:48.625Z,15.70
2023-03-22T08:52:15.421Z,17.53
2023-03-22T08:54:42.507Z,17.17
2023-03-22T08:57:11.757Z,16.67
2023-03-22T08:59:38.542Z,17.63
2023-03-22T09:02:11.041Z,16.87
2023-03-22T09:04:37.966Z,16.80
2023-03-22T09:07:06.913Z,16.07
2023-03-22T09:09:33.705Z,17.17
2023-03-22T09:12:00.539Z,15.90
2023-03-22T09:14:27.317Z,15.47
2023-03-22T09:16:54.073Z,16.37
2023-03-22T09:19:20.965Z,16.40
2023-03-22T09:21:52.433Z,15.30
2023-03-22T09:24:19.424Z,15.83
2023-03-22T09:26:48.635Z,16.50
2023-03-22T09:29:15.747Z,17.00
2023-03-22T09:31:43.468Z,15.83
2023-03-22T09:34:12.614Z,16.27
2023-03-22T09:36:39.360Z,15.03
2023-03-22T09:39:07.493Z,14.80
2023-03-22T09:41:50.623Z,16.03
2023-03-22T09:44:24.670Z,15.57
2023-03-22T09:46:55.134Z,15.27
2023-03-22T09:49:52.346Z,15.30
2023-03-22T09:52:24.874Z,15.83
2023-03-22T09:54:53.253Z,14.87
2023-03-22T09:57:37.900Z,14.90
2023-03-22T10:00:14.861Z,15.30
2023-03-22T10:02:59.861Z,15.27
2023-03-22T10:05:31.615Z,13.70
2023-03-22T10:07:58.429Z,14.00
2023-03-22T10:10:25.426Z,14.30
2023-03-22T10:13:01.482Z,14.47
2023-03-22T10:15:47.846Z,13.90
2023-03-22T10:18:33.729Z,13.27
2023-03-22T10:21:13.845Z,13.57
2023-03-22T10:23:48.259Z,13.10
2023-03-22T10:26:41.776Z,12.67
2023-03-22T10:29:31.454Z,12.83
2023-03-22T10:32:09.613Z,12.63
2023-03-22T10:34:36.729Z,13.03
2023-03-22T10:37:04.211Z,12.13
2023-03-22T10:39:40.070Z,13.10
2023-03-22T10:42:13.550Z,12.50
2023-03-22T10:44:48.137Z,12.57
2023-03-22T10:47:18.166Z,13.67
2023-03-22T10:49:48.358Z,12.30
2023-03-22T10:52:30.601Z,13.57
2023-03-22T10:55:01.280Z,12.63
2023-03-22T10:57:29.980Z,13.00
2023-03-22T10:59:56.970Z,13.17
2023-03-22T11:02:29.182Z,13.80
2023-03-22T11:05:03.782Z,12.00
2023-03-22T11:07:39.302Z,11.77
2023-03-22T11:10:09.085Z,12.03
2023-03-22T11:12:39.005Z,12.00
2023-03-22T11:15:07.289Z,11.07
2023-03-22T11:17:36.065Z,11.63
2023-03-22T11:20:10.477Z,11.93
2023-03-22T11:22:43.552Z,12.63
2023-03-22T11:25:27.751Z,11.80
2023-03-22T11:27:58.453Z,12.27
2023-03-22T11:30:28.937Z,12.40
2023-03-22T11:33:03.412Z,11.83
2023-03-22T11:35:33.076Z,11.47
2023-03-22T11:38:02.357Z,12.13
2023-03-22T11:40:31.618Z,12.27
2023-03-22T11:43:10.799Z,11.77
2023-03-22T11:45:42.033Z,12.50
2023-03-22T11:48:21.411Z,12.53
2023-03-22T11:50:55.882Z,12.13
2023-03-22T11:53:24.277Z,12.27
2023-03-22T11:55:51.672Z,12.10
2023-03-22T11:58:39.882Z,12.87
2023-03-22T12:01:09.058Z,11.80
2023-03-22T12:03:42.273Z,12.37
2023-03-22T12:06:39.422Z,12.70
2023-03-22T12:09:25.674Z,13.20
2023-03-22T12:11:54.850Z,12.43
2023-03-22T12:15:06.396Z,11.77
2023-03-22T12:17:45.967Z,11.70
2023-03-22T12:20:14.991Z,11.90
2023-03-22T12:22:45.809Z,12.57
2023-03-22T12:25:17.491Z,11.33
2023-03-22T12:27:54.246Z,12.37
2023-03-22T12:30:28.766Z,11.90
2023-03-22T12:33:03.723Z,11.77
2023-03-22T12:35:35.241Z,10.47
2023-03-22T12:38:12.165Z,11.80
2023-03-22T12:40:39.567Z,11.73
2023-03-22T12:43:15.436Z,11.17
2023-03-22T12:45:47.750Z,10.37
2023-03-22T12:48:46.652Z,10.40
2023-03-22T12:51:17.177Z,10.40
2023-03-22T12:53:54.935Z,10.47
2023-03-22T12:56:39.964Z,10.40
2023-03-22T12:59:12.499Z,9.80
2023-03-22T13:02:03.984Z,9.83
2023-03-22T13:04:37.086Z,9.00
2023-03-22T13:07:19.622Z,9.60
2023-03-22T13:09:49.909Z,10.23
2023-03-22T13:12:16.796Z,9.93
2023-03-22T13:14:52.699Z,9.90
2023-03-22T13:17:22.577Z,10.10
2023-03-22T13:20:01.390Z,10.00
2023-03-22T13:22:31.344Z,10.67
2023-03-22T13:24:59.269Z,9.47
2023-03-22T13:27:46.029Z,10.23
2023-03-22T13:30:32.900Z,11.17
2023-03-22T13:33:08.814Z,10.57
2023-03-22T13:35:53.901Z,10.53
2023-03-22T13:38:26.715Z,10.60
2023-03-22T13:40:59.436Z,11.00
2023-03-22T13:43:30.194Z,10.50
2023-03-22T13:46:00.998Z,10.63
2023-03-22T13:48:41.284Z,9.93
2023-03-22T13:51:23.411Z,10.73
2023-03-22T13:54:29.693Z,10.43
2023-03-22T13:56:59.573Z,10.37
2023-03-22T13:59:27.292Z,9.80
2023-03-22T14:01:59.671Z,9.23
2023-03-22T14:04:37.261Z,9.40
2023-03-22T14:07:22.801Z,8.83
2023-03-22T14:09:51.446Z,9.77
2023-03-22T14:12:37.062Z,9.80
2023-03-22T14:15:04.896Z,9.90
2023-03-22T14:18:04.464Z,9.60
2023-03-22T14:20:35.613Z,9.60
